sensor_id;sensor_type;location;lat;lon;timestamp;temperature;humidity
23703;DHT22;12030;50.376;8.762;2024-03-25T00:01:13;7.00;99.90
23703;DHT22;12030;50.376;8.762;2024-03-25T00:03:38;7.00;99.90
23703;DHT22;12030;50.376;8.762;2024-03-25T00:06:04;7.00;99.90
23703;DHT22;12030;50.376;8.762;2024-03-25T00:08:30;7.00;99.90
23703;DHT22;12030;50.376;8.762;2024-03-25T00:10:55;6.90;99.90
23703;DHT22;12030;50.376;8.762;2024-03-25T00:13:21;6.90;99.90
23703;DHT22;12030;50.376;8.762;2024-03-25T00:15:47;6.90;99.90
23703;DHT22;12030;50.376;8.762;2024-03-25T00:18:12;6.90;99.90
23703;DHT22;12030;50.376;8.762;2024-03-25T00:20:38;6.90;99.90
23703;DHT22;12030;50.376;8.762;2024-03-25T00:23:04;6.90;99.90
23703;DHT22;12030;50.376;8.762;2024-03-25T00:25:30;7.00;99.90
23703;DHT22;12030;50.376;8.762;2024-03-25T00:27:55;7.00;99.90
23703;DHT22;12030;50.376;8.762;2024-03-25T00:30:22;7.00;99.90
23703;DHT22;12030;50.376;8.762;2024-03-25T00:32:47;6.90;99.90
23703;DHT22;12030;50.376;8.762;2024-03-25T00:35:13;6.90;99.90
23703;DHT22;12030;50.376;8.762;2024-03-25T00:37:38;6.90;99.90
23703;DHT22;12030;50.376;8.762;2024-03-25T00:40:04;6.90;99.90
23703;DHT22;12030;50.376;8.762;2024-03-25T00:42:32;6.90;99.90
23703;DHT22;12030;50.376;8.762;2024-03-25T00:44:58;6.90;99.90
23703;DHT22;12030;50.376;8.762;2024-03-25T00:47:24;6.90;99.90
23703;DHT22;12030;50.376;8.762;2024-03-25T00:49:49;6.80;99.90
23703;DHT22;12030;50.376;8.762;2024-03-25T00:52:15;6.70;99.90
23703;DHT22;12030;50.376;8.762;2024-03-25T00:54:40;6.70;99.90
23703;DHT22;12030;50.376;8.762;2024-03-25T00:57:06;6.60;99.90
23703;DHT22;12030;50.376;8.762;2024-03-25T00:59:31;6.50;99.90
23703;DHT22;12030;50.376;8.762;2024-03-25T01:01:57;6.40;99.90
23703;DHT22;12030;50.376;8.762;2024-03-25T01:04:23;6.30;99.90
23703;DHT22;12030;50.376;8.762;2024-03-25T01:06:48;6.30;99.90
23703;DHT22;12030;50.376;8.762;2024-03-25T01:09:14;6.20;99.90
23703;DHT22;12030;50.376;8.762;2024-03-25T01:11:39;6.20;99.90
23703;DHT22;12030;50.376;8.762;2024-03-25T01:14:05;6.10;99.90
23703;DHT22;12030;50.376;8.762;2024-03-25T01:16:31;6.10;99.90
23703;DHT22;12030;50.376;8.762;2024-03-25T01:18:57;6.10;99.90
23703;DHT22;12030;50.376;8.762;2024-03-25T01:21:24;6.10;99.90
23703;DHT22;12030;50.376;8.762;2024-03-25T01:23:50;6.10;99.90
23703;DHT22;12030;50.376;8.762;2024-03-25T01:26:15;6.10;99.90
23703;DHT22;12030;50.376;8.762;2024-03-25T01:28:42;6.10;99.90
23703;DHT22;12030;50.376;8.762;2024-03-25T01:31:07;6.00;99.90
23703;DHT22;12030;50.376;8.762;2024-03-25T01:33:33;6.00;99.90
23703;DHT22;12030;50.376;8.762;2024-03-25T01:36:00;6.10;99.90
23703;DHT22;12030;50.376;8.762;2024-03-25T01:38:25;6.10;99.90
23703;DHT22;12030;50.376;8.762;2024-03-25T01:40:51;6.10;99.90
23703;DHT22;12030;50.376;8.762;2024-03-25T01:43:16;6.10;99.90
23703;DHT22;12030;50.376;8.762;2024-03-25T01:45:42;6.20;99.90
23703;DHT22;12030;50.376;8.762;2024-03-25T01:48:09;6.20;99.90
23703;DHT22;12030;50.376;8.762;2024-03-25T01:50:39;6.20;99.90
23703;DHT22;12030;50.376;8.762;2024-03-25T01:53:05;6.20;99.90
23703;DHT22;12030;50.376;8.762;2024-03-25T01:55:32;6.20;99.90
23703;DHT22;12030;50.376;8.762;2024-03-25T01:58:00;6.20;99.90
23703;DHT22;12030;50.376;8.762;2024-03-25T02:00:26;6.10;99.90
23703;DHT22;12030;50.376;8.762;2024-03-25T02:02:52;6.10;99.90
23703;DHT22;12030;50.376;8.762;2024-03-25T02:05:18;6.10;99.90
23703;DHT22;12030;50.376;8.762;2024-03-25T02:07:45;6.10;99.90
23703;DHT22;12030;50.376;8.762;2024-03-25T02:10:11;6.10;99.90
23703;DHT22;12030;50.376;8.762;2024-03-25T02:12:44;6.10;99.90
23703;DHT22;12030;50.376;8.762;2024-03-25T02:15:11;6.00;99.90
23703;DHT22;12030;50.376;8.762;2024-03-25T02:17:37;6.00;99.90
23703;DHT22;12030;50.376;8.762;2024-03-25T02:20:04;6.00;99.90
23703;DHT22;12030;50.376;8.762;2024-03-25T02:22:37;6.00;99.90
23703;DHT22;12030;50.376;8.762;2024-03-25T02:25:07;5.90;99.90
23703;DHT22;12030;50.376;8.762;2024-03-25T02:27:39;6.00;99.90
23703;DHT22;12030;50.376;8.762;2024-03-25T02:30:09;6.00;99.90
23703;DHT22;12030;50.376;8.762;2024-03-25T02:32:37;5.90;99.90
23703;DHT22;12030;50.376;8.762;2024-03-25T02:35:06;5.90;99.90
23703;DHT22;12030;50.376;8.762;2024-03-25T02:37:33;5.90;99.90
23703;DHT22;12030;50.376;8.762;2024-03-25T02:39:59;5.90;99.90
23703;DHT22;12030;50.376;8.762;2024-03-25T02:42:27;5.90;99.90
23703;DHT22;12030;50.376;8.762;2024-03-25T02:44:54;5.80;99.90
23703;DHT22;12030;50.376;8.762;2024-03-25T02:47:20;5.80;99.90
23703;DHT22;12030;50.376;8.762;2024-03-25T02:49:46;5.70;99.90
23703;DHT22;12030;50.376;8.762;2024-03-25T02:52:12;5.70;99.90
23703;DHT22;12030;50.376;8.762;2024-03-25T02:54:37;5.70;99.90
23703;DHT22;12030;50.376;8.762;2024-03-25T02:57:03;5.70;99.90
23703;DHT22;12030;50.376;8.762;2024-03-25T02:59:28;5.70;99.90
23703;DHT22;12030;50.376;8.762;2024-03-25T03:01:54;5.70;99.90
23703;DHT22;12030;50.376;8.762;2024-03-25T03:04:19;5.60;99.90
23703;DHT22;12030;50.376;8.762;2024-03-25T03:06:45;5.60;99.90
23703;DHT22;12030;50.376;8.762;2024-03-25T03:09:10;5.60;99.90
23703;DHT22;12030;50.376;8.762;2024-03-25T03:11:36;5.60;99.90
23703;DHT22;12030;50.376;8.762;2024-03-25T03:14:02;5.60;99.90
23703;DHT22;12030;50.376;8.762;2024-03-25T03:16:28;5.50;99.90
23703;DHT22;12030;50.376;8.762;2024-03-25T03:18:54;5.50;99.90
23703;DHT22;12030;50.376;8.762;2024-03-25T03:21:20;5.40;99.90
23703;DHT22;12030;50.376;8.762;2024-03-25T03:23:45;5.40;99.90
23703;DHT22;12030;50.376;8.762;2024-03-25T03:26:11;5.40;99.90
23703;DHT22;12030;50.376;8.762;2024-03-25T03:28:37;5.40;99.90
23703;DHT22;12030;50.376;8.762;2024-03-25T03:31:02;5.40;99.90
23703;DHT22;12030;50.376;8.762;2024-03-25T03:33:28;5.50;99.90
23703;DHT22;12030;50.376;8.762;2024-03-25T03:35:54;5.50;99.90
23703;DHT22;12030;50.376;8.762;2024-03-25T03:38:21;5.60;99.90
23703;DHT22;12030;50.376;8.762;2024-03-25T03:40:57;5.60;99.90
23703;DHT22;12030;50.376;8.762;2024-03-25T03:43:23;5.70;99.90
23703;DHT22;12030;50.376;8.762;2024-03-25T03:45:48;5.60;99.90
23703;DHT22;12030;50.376;8.762;2024-03-25T03:48:14;5.70;99.90
23703;DHT22;12030;50.376;8.762;2024-03-25T03:50:39;5.70;99.90
23703;DHT22;12030;50.376;8.762;2024-03-25T03:53:05;5.80;99.90
23703;DHT22;12030;50.376;8.762;2024-03-25T03:55:30;5.80;99.90
23703;DHT22;12030;50.376;8.762;2024-03-25T03:57:56;5.80;99.90
23703;DHT22;12030;50.376;8.762;2024-03-25T04:00:21;5.80;99.90
23703;DHT22;12030;50.376;8.762;2024-03-25T04:02:47;5.90;99.90
23703;DHT22;12030;50.376;8.762;2024-03-25T04:05:12;5.80;99.90
23703;DHT22;12030;50.376;8.762;2024-03-25T04:07:38;5.80;99.90
23703;DHT22;12030;50.376;8.762;2024-03-25T04:10:04;5.80;99.90
23703;DHT22;12030;50.376;8.762;2024-03-25T04:12:30;5.80;99.90
23703;DHT22;12030;50.376;8.762;2024-03-25T04:14:55;5.80;99.90
23703;DHT22;12030;50.376;8.762;2024-03-25T04:17:22;5.80;99.90
23703;DHT22;12030;50.376;8.762;2024-03-25T04:19:51;5.80;99.90
23703;DHT22;12030;50.376;8.762;2024-03-25T04:22:16;5.80;99.90
23703;DHT22;12030;50.376;8.762;2024-03-25T04:24:45;5.80;99.90
23703;DHT22;12030;50.376;8.762;2024-03-25T04:27:10;5.80;99.90
23703;DHT22;12030;50.376;8.762;2024-03-25T04:29:36;5.80;99.90
23703;DHT22;12030;50.376;8.762;2024-03-25T04:32:02;5.80;99.90
23703;DHT22;12030;50.376;8.762;2024-03-25T04:34:28;5.80;99.90
23703;DHT22;12030;50.376;8.762;2024-03-25T04:36:55;5.80;99.90
23703;DHT22;12030;50.376;8.762;2024-03-25T04:39:20;5.80;99.90
23703;DHT22;12030;50.376;8.762;2024-03-25T04:41:46;5.80;99.90
23703;DHT22;12030;50.376;8.762;2024-03-25T04:44:11;5.80;99.90
23703;DHT22;12030;50.376;8.762;2024-03-25T04:46:37;5.70;99.90
23703;DHT22;12030;50.376;8.762;2024-03-25T04:49:02;5.70;99.90
23703;DHT22;12030;50.376;8.762;2024-03-25T04:51:28;5.60;99.90
23703;DHT22;12030;50.376;8.762;2024-03-25T04:53:53;5.60;99.90
23703;DHT22;12030;50.376;8.762;2024-03-25T04:56:19;5.60;99.90
23703;DHT22;12030;50.376;8.762;2024-03-25T04:58:45;5.60;99.90
23703;DHT22;12030;50.376;8.762;2024-03-25T05:01:10;5.50;99.90
23703;DHT22;12030;50.376;8.762;2024-03-25T05:03:36;5.40;99.90
23703;DHT22;12030;50.376;8.762;2024-03-25T05:06:01;5.40;99.90
23703;DHT22;12030;50.376;8.762;2024-03-25T05:08:27;5.40;99.90
23703;DHT22;12030;50.376;8.762;2024-03-25T05:10:53;5.30;99.90
23703;DHT22;12030;50.376;8.762;2024-03-25T05:13:18;5.20;99.90
23703;DHT22;12030;50.376;8.762;2024-03-25T05:15:53;5.10;99.90
23703;DHT22;12030;50.376;8.762;2024-03-25T05:18:18;5.00;99.90
23703;DHT22;12030;50.376;8.762;2024-03-25T05:20:45;5.00;99.90
23703;DHT22;12030;50.376;8.762;2024-03-25T05:23:11;4.90;99.90
23703;DHT22;12030;50.376;8.762;2024-03-25T05:25:36;4.90;99.90
23703;DHT22;12030;50.376;8.762;2024-03-25T05:28:04;4.90;99.90
23703;DHT22;12030;50.376;8.762;2024-03-25T05:30:30;4.80;99.90
23703;DHT22;12030;50.376;8.762;2024-03-25T05:32:55;4.80;99.90
23703;DHT22;12030;50.376;8.762;2024-03-25T05:35:21;4.80;99.90
23703;DHT22;12030;50.376;8.762;2024-03-25T05:37:46;4.80;99.90
23703;DHT22;12030;50.376;8.762;2024-03-25T05:40:12;4.90;99.90
23703;DHT22;12030;50.376;8.762;2024-03-25T05:42:38;4.90;99.90
23703;DHT22;12030;50.376;8.762;2024-03-25T05:45:04;5.00;99.90
23703;DHT22;12030;50.376;8.762;2024-03-25T05:47:29;5.00;99.90
23703;DHT22;12030;50.376;8.762;2024-03-25T05:49:55;5.10;99.90
23703;DHT22;12030;50.376;8.762;2024-03-25T05:52:20;5.20;99.90
23703;DHT22;12030;50.376;8.762;2024-03-25T05:54:46;5.20;99.90
23703;DHT22;12030;50.376;8.762;2024-03-25T05:57:11;5.30;99.90
23703;DHT22;12030;50.376;8.762;2024-03-25T05:59:37;5.40;99.90
23703;DHT22;12030;50.376;8.762;2024-03-25T06:02:02;5.40;99.90
23703;DHT22;12030;50.376;8.762;2024-03-25T06:04:28;5.50;99.90
23703;DHT22;12030;50.376;8.762;2024-03-25T06:06:53;5.50;99.90
23703;DHT22;12030;50.376;8.762;2024-03-25T06:09:19;5.60;99.90
23703;DHT22;12030;50.376;8.762;2024-03-25T06:11:44;5.50;99.90
23703;DHT22;12030;50.376;8.762;2024-03-25T06:14:10;5.50;99.90
23703;DHT22;12030;50.376;8.762;2024-03-25T06:16:35;5.50;99.90
23703;DHT22;12030;50.376;8.762;2024-03-25T06:19:01;5.50;99.90
23703;DHT22;12030;50.376;8.762;2024-03-25T06:21:26;5.50;99.90
23703;DHT22;12030;50.376;8.762;2024-03-25T06:23:52;5.70;99.90
23703;DHT22;12030;50.376;8.762;2024-03-25T06:26:18;5.80;99.90
23703;DHT22;12030;50.376;8.762;2024-03-25T06:28:44;5.90;99.90
23703;DHT22;12030;50.376;8.762;2024-03-25T06:31:11;6.10;99.90
23703;DHT22;12030;50.376;8.762;2024-03-25T06:33:55;6.20;99.90
23703;DHT22;12030;50.376;8.762;2024-03-25T06:36:39;6.30;99.90
23703;DHT22;12030;50.376;8.762;2024-03-25T06:39:04;6.30;99.90
23703;DHT22;12030;50.376;8.762;2024-03-25T06:41:30;6.50;99.90
23703;DHT22;12030;50.376;8.762;2024-03-25T06:43:55;6.60;99.90
23703;DHT22;12030;50.376;8.762;2024-03-25T06:46:21;6.70;99.90
23703;DHT22;12030;50.376;8.762;2024-03-25T06:48:47;6.70;99.90
23703;DHT22;12030;50.376;8.762;2024-03-25T06:51:12;6.80;99.90
23703;DHT22;12030;50.376;8.762;2024-03-25T06:53:38;6.90;99.90
23703;DHT22;12030;50.376;8.762;2024-03-25T06:56:03;6.90;99.90
23703;DHT22;12030;50.376;8.762;2024-03-25T06:58:29;6.90;99.90
23703;DHT22;12030;50.376;8.762;2024-03-25T07:00:56;6.90;99.90
23703;DHT22;12030;50.376;8.762;2024-03-25T07:03:23;6.90;99.90
23703;DHT22;12030;50.376;8.762;2024-03-25T07:05:50;6.90;99.90
23703;DHT22;12030;50.376;8.762;2024-03-25T07:08:20;6.80;99.90
23703;DHT22;12030;50.376;8.762;2024-03-25T07:10:46;6.80;99.90
23703;DHT22;12030;50.376;8.762;2024-03-25T07:13:12;6.80;99.90
23703;DHT22;12030;50.376;8.762;2024-03-25T07:15:38;6.80;99.90
23703;DHT22;12030;50.376;8.762;2024-03-25T07:18:04;6.90;99.90
23703;DHT22;12030;50.376;8.762;2024-03-25T07:20:30;6.90;99.90
23703;DHT22;12030;50.376;8.762;2024-03-25T07:22:56;7.00;99.90
23703;DHT22;12030;50.376;8.762;2024-03-25T07:25:23;7.00;99.90
23703;DHT22;12030;50.376;8.762;2024-03-25T07:27:49;7.10;99.90
23703;DHT22;12030;50.376;8.762;2024-03-25T07:30:14;7.10;99.90
23703;DHT22;12030;50.376;8.762;2024-03-25T07:32:40;7.20;99.90
23703;DHT22;12030;50.376;8.762;2024-03-25T07:35:06;7.20;99.90
23703;DHT22;12030;50.376;8.762;2024-03-25T07:37:33;7.20;99.90
23703;DHT22;12030;50.376;8.762;2024-03-25T07:39:59;7.30;99.90
23703;DHT22;12030;50.376;8.762;2024-03-25T07:42:25;7.30;99.90
23703;DHT22;12030;50.376;8.762;2024-03-25T07:44:50;7.40;99.90
23703;DHT22;12030;50.376;8.762;2024-03-25T07:47:16;7.40;99.90
23703;DHT22;12030;50.376;8.762;2024-03-25T07:49:42;7.40;99.90
23703;DHT22;12030;50.376;8.762;2024-03-25T07:52:07;7.30;99.90
23703;DHT22;12030;50.376;8.762;2024-03-25T07:54:33;7.20;99.90
23703;DHT22;12030;50.376;8.762;2024-03-25T07:56:58;7.10;99.90
23703;DHT22;12030;50.376;8.762;2024-03-25T07:59:24;7.10;99.90
23703;DHT22;12030;50.376;8.762;2024-03-25T08:01:50;7.10;99.90
23703;DHT22;12030;50.376;8.762;2024-03-25T08:04:15;7.10;99.90
23703;DHT22;12030;50.376;8.762;2024-03-25T08:06:41;7.10;99.90
23703;DHT22;12030;50.376;8.762;2024-03-25T08:09:06;7.30;99.90
23703;DHT22;12030;50.376;8.762;2024-03-25T08:11:32;7.30;99.90
23703;DHT22;12030;50.376;8.762;2024-03-25T08:13:58;7.40;99.90
23703;DHT22;12030;50.376;8.762;2024-03-25T08:16:23;7.40;99.90
23703;DHT22;12030;50.376;8.762;2024-03-25T08:18:49;7.40;99.90
23703;DHT22;12030;50.376;8.762;2024-03-25T08:21:15;7.30;99.90
23703;DHT22;12030;50.376;8.762;2024-03-25T08:23:41;7.30;99.90
23703;DHT22;12030;50.376;8.762;2024-03-25T08:26:06;7.30;99.90
23703;DHT22;12030;50.376;8.762;2024-03-25T08:28:32;7.40;99.90
23703;DHT22;12030;50.376;8.762;2024-03-25T08:30:58;7.50;99.90
23703;DHT22;12030;50.376;8.762;2024-03-25T08:33:23;7.70;99.90
23703;DHT22;12030;50.376;8.762;2024-03-25T08:35:49;7.90;99.90
23703;DHT22;12030;50.376;8.762;2024-03-25T08:38:15;8.00;99.90
23703;DHT22;12030;50.376;8.762;2024-03-25T08:40:40;8.20;99.90
23703;DHT22;12030;50.376;8.762;2024-03-25T08:43:06;8.20;99.90
23703;DHT22;12030;50.376;8.762;2024-03-25T08:45:32;8.30;99.90
23703;DHT22;12030;50.376;8.762;2024-03-25T08:47:58;8.50;99.90
23703;DHT22;12030;50.376;8.762;2024-03-25T08:50:23;8.70;99.90
23703;DHT22;12030;50.376;8.762;2024-03-25T08:52:49;8.80;99.90
23703;DHT22;12030;50.376;8.762;2024-03-25T08:55:15;8.80;99.90
23703;DHT22;12030;50.376;8.762;2024-03-25T08:57:40;8.90;99.90
23703;DHT22;12030;50.376;8.762;2024-03-25T09:00:06;9.00;99.90
23703;DHT22;12030;50.376;8.762;2024-03-25T09:02:38;9.20;99.90
23703;DHT22;12030;50.376;8.762;2024-03-25T09:05:04;9.50;99.90
23703;DHT22;12030;50.376;8.762;2024-03-25T09:07:31;9.60;99.90
23703;DHT22;12030;50.376;8.762;2024-03-25T09:09:57;9.60;99.90
23703;DHT22;12030;50.376;8.762;2024-03-25T09:12:41;9.60;99.90
23703;DHT22;12030;50.376;8.762;2024-03-25T09:15:07;9.70;99.90
23703;DHT22;12030;50.376;8.762;2024-03-25T09:17:32;9.60;99.90
23703;DHT22;12030;50.376;8.762;2024-03-25T09:19:58;9.60;99.90
23703;DHT22;12030;50.376;8.762;2024-03-25T09:22:23;9.80;99.90
23703;DHT22;12030;50.376;8.762;2024-03-25T09:24:49;9.90;99.90
23703;DHT22;12030;50.376;8.762;2024-03-25T09:27:15;10.00;99.90
23703;DHT22;12030;50.376;8.762;2024-03-25T09:29:41;10.00;99.90
23703;DHT22;12030;50.376;8.762;2024-03-25T09:32:07;10.10;99.90
23703;DHT22;12030;50.376;8.762;2024-03-25T09:34:33;10.10;99.90
23703;DHT22;12030;50.376;8.762;2024-03-25T09:36:58;10.10;99.90
23703;DHT22;12030;50.376;8.762;2024-03-25T09:39:24;9.90;99.90
23703;DHT22;12030;50.376;8.762;2024-03-25T09:41:51;9.70;99.90
23703;DHT22;12030;50.376;8.762;2024-03-25T09:44:24;9.60;99.90
23703;DHT22;12030;50.376;8.762;2024-03-25T09:46:50;9.70;99.90
23703;DHT22;12030;50.376;8.762;2024-03-25T09:49:17;9.90;99.90
23703;DHT22;12030;50.376;8.762;2024-03-25T09:51:43;9.80;99.50
23703;DHT22;12030;50.376;8.762;2024-03-25T09:54:08;9.90;99.90
23703;DHT22;12030;50.376;8.762;2024-03-25T09:56:35;10.20;99.90
23703;DHT22;12030;50.376;8.762;2024-03-25T09:59:02;10.30;99.90
23703;DHT22;12030;50.376;8.762;2024-03-25T10:01:28;10.50;99.90
23703;DHT22;12030;50.376;8.762;2024-03-25T10:03:54;10.60;99.70
23703;DHT22;12030;50.376;8.762;2024-03-25T10:06:20;10.60;99.90
23703;DHT22;12030;50.376;8.762;2024-03-25T10:08:45;10.70;96.80
23703;DHT22;12030;50.376;8.762;2024-03-25T10:11:11;10.70;99.00
23703;DHT22;12030;50.376;8.762;2024-03-25T10:13:37;10.30;98.10
23703;DHT22;12030;50.376;8.762;2024-03-25T10:16:03;10.10;99.10
23703;DHT22;12030;50.376;8.762;2024-03-25T10:18:28;10.00;99.90
23703;DHT22;12030;50.376;8.762;2024-03-25T10:20:54;9.90;99.40
23703;DHT22;12030;50.376;8.762;2024-03-25T10:23:24;10.00;99.90
23703;DHT22;12030;50.376;8.762;2024-03-25T10:25:52;9.80;99.40
23703;DHT22;12030;50.376;8.762;2024-03-25T10:28:18;9.60;99.60
23703;DHT22;12030;50.376;8.762;2024-03-25T10:30:43;9.70;99.90
23703;DHT22;12030;50.376;8.762;2024-03-25T10:33:09;9.80;98.90
23703;DHT22;12030;50.376;8.762;2024-03-25T10:35:35;9.90;97.50
23703;DHT22;12030;50.376;8.762;2024-03-25T10:38:04;10.10;98.10
23703;DHT22;12030;50.376;8.762;2024-03-25T10:40:39;10.20;97.70
23703;DHT22;12030;50.376;8.762;2024-03-25T10:43:07;10.20;96.60
23703;DHT22;12030;50.376;8.762;2024-03-25T10:45:34;10.30;96.20
23703;DHT22;12030;50.376;8.762;2024-03-25T10:48:04;10.20;97.30
23703;DHT22;12030;50.376;8.762;2024-03-25T10:50:35;10.40;97.10
23703;DHT22;12030;50.376;8.762;2024-03-25T10:53:02;10.40;98.80
23703;DHT22;12030;50.376;8.762;2024-03-25T10:55:30;10.50;97.90
23703;DHT22;12030;50.376;8.762;2024-03-25T10:57:56;10.30;97.90
23703;DHT22;12030;50.376;8.762;2024-03-25T11:00:23;10.30;96.50
23703;DHT22;12030;50.376;8.762;2024-03-25T11:02:48;10.40;96.00
23703;DHT22;12030;50.376;8.762;2024-03-25T11:05:15;10.50;93.50
23703;DHT22;12030;50.376;8.762;2024-03-25T11:07:41;10.20;93.00
23703;DHT22;12030;50.376;8.762;2024-03-25T11:10:08;10.20;93.70
23703;DHT22;12030;50.376;8.762;2024-03-25T11:12:38;10.30;94.60
23703;DHT22;12030;50.376;8.762;2024-03-25T11:15:06;10.50;94.90
23703;DHT22;12030;50.376;8.762;2024-03-25T11:17:34;10.50;95.90
23703;DHT22;12030;50.376;8.762;2024-03-25T11:20:10;10.50;93.80
23703;DHT22;12030;50.376;8.762;2024-03-25T11:22:36;10.40;93.70
23703;DHT22;12030;50.376;8.762;2024-03-25T11:25:13;10.40;93.60
23703;DHT22;12030;50.376;8.762;2024-03-25T11:27:39;10.40;94.20
23703;DHT22;12030;50.376;8.762;2024-03-25T11:30:06;10.50;95.50
23703;DHT22;12030;50.376;8.762;2024-03-25T11:35:08;10.80;94.20
23703;DHT22;12030;50.376;8.762;2024-03-25T11:37:42;11.00;96.30
23703;DHT22;12030;50.376;8.762;2024-03-25T11:40:09;11.20;94.80
23703;DHT22;12030;50.376;8.762;2024-03-25T11:42:40;11.20;91.40
23703;DHT22;12030;50.376;8.762;2024-03-25T11:45:17;11.30;91.90
23703;DHT22;12030;50.376;8.762;2024-03-25T11:47:47;11.20;92.40
23703;DHT22;12030;50.376;8.762;2024-03-25T11:50:15;11.30;92.70
23703;DHT22;12030;50.376;8.762;2024-03-25T11:52:41;11.40;90.80
23703;DHT22;12030;50.376;8.762;2024-03-25T11:55:07;11.30;91.90
23703;DHT22;12030;50.376;8.762;2024-03-25T11:57:40;11.50;93.80
23703;DHT22;12030;50.376;8.762;2024-03-25T12:00:07;11.50;93.40
23703;DHT22;12030;50.376;8.762;2024-03-25T12:02:36;11.60;93.90
23703;DHT22;12030;50.376;8.762;2024-03-25T12:05:03;11.90;95.60
23703;DHT22;12030;50.376;8.762;2024-03-25T12:07:31;12.10;96.60
23703;DHT22;12030;50.376;8.762;2024-03-25T12:09:58;12.40;97.30
23703;DHT22;12030;50.376;8.762;2024-03-25T12:12:42;12.50;96.00
23703;DHT22;12030;50.376;8.762;2024-03-25T12:15:09;12.50;94.80
23703;DHT22;12030;50.376;8.762;2024-03-25T12:17:35;12.30;92.90
23703;DHT22;12030;50.376;8.762;2024-03-25T12:20:06;12.10;94.10
23703;DHT22;12030;50.376;8.762;2024-03-25T12:22:36;12.10;95.10
23703;DHT22;12030;50.376;8.762;2024-03-25T12:25:03;12.00;97.00
23703;DHT22;12030;50.376;8.762;2024-03-25T12:27:32;12.30;97.00
23703;DHT22;12030;50.376;8.762;2024-03-25T12:30:04;12.40;95.20
23703;DHT22;12030;50.376;8.762;2024-03-25T12:32:42;12.50;96.50
23703;DHT22;12030;50.376;8.762;2024-03-25T12:35:14;12.70;98.70
23703;DHT22;12030;50.376;8.762;2024-03-25T12:37:44;12.60;98.50
23703;DHT22;12030;50.376;8.762;2024-03-25T12:40:11;12.70;98.60
23703;DHT22;12030;50.376;8.762;2024-03-25T12:42:38;12.90;98.50
23703;DHT22;12030;50.376;8.762;2024-03-25T12:45:07;12.90;97.70
23703;DHT22;12030;50.376;8.762;2024-03-25T12:47:33;12.90;96.60
23703;DHT22;12030;50.376;8.762;2024-03-25T12:49:59;12.90;96.90
23703;DHT22;12030;50.376;8.762;2024-03-25T12:52:25;12.90;97.00
23703;DHT22;12030;50.376;8.762;2024-03-25T12:54:51;12.90;97.70
23703;DHT22;12030;50.376;8.762;2024-03-25T12:57:17;12.80;97.60
23703;DHT22;12030;50.376;8.762;2024-03-25T12:59:43;12.80;97.10
23703;DHT22;12030;50.376;8.762;2024-03-25T13:02:11;12.90;97.20
23703;DHT22;12030;50.376;8.762;2024-03-25T13:04:37;13.00;95.80
23703;DHT22;12030;50.376;8.762;2024-03-25T13:07:05;13.10;96.40
23703;DHT22;12030;50.376;8.762;2024-03-25T13:09:31;13.30;97.00
23703;DHT22;12030;50.376;8.762;2024-03-25T13:11:57;13.40;95.20
23703;DHT22;12030;50.376;8.762;2024-03-25T13:14:23;13.40;95.20
23703;DHT22;12030;50.376;8.762;2024-03-25T13:16:49;13.70;95.40
23703;DHT22;12030;50.376;8.762;2024-03-25T13:19:14;13.70;95.10
23703;DHT22;12030;50.376;8.762;2024-03-25T13:21:40;13.60;91.70
23703;DHT22;12030;50.376;8.762;2024-03-25T13:24:06;13.50;92.40
23703;DHT22;12030;50.376;8.762;2024-03-25T13:26:32;13.50;94.90
23703;DHT22;12030;50.376;8.762;2024-03-25T13:28:57;13.60;93.70
23703;DHT22;12030;50.376;8.762;2024-03-25T13:31:24;13.60;93.00
23703;DHT22;12030;50.376;8.762;2024-03-25T13:33:49;13.60;93.00
23703;DHT22;12030;50.376;8.762;2024-03-25T13:36:17;13.70;94.80
23703;DHT22;12030;50.376;8.762;2024-03-25T13:38:42;13.90;92.80
23703;DHT22;12030;50.376;8.762;2024-03-25T13:41:08;13.90;89.10
23703;DHT22;12030;50.376;8.762;2024-03-25T13:43:33;13.90;90.10
23703;DHT22;12030;50.376;8.762;2024-03-25T13:45:59;13.80;87.90
23703;DHT22;12030;50.376;8.762;2024-03-25T13:48:24;14.00;91.30
23703;DHT22;12030;50.376;8.762;2024-03-25T13:50:53;13.90;92.30
23703;DHT22;12030;50.376;8.762;2024-03-25T13:53:19;13.80;90.60
23703;DHT22;12030;50.376;8.762;2024-03-25T13:55:44;14.00;90.90
23703;DHT22;12030;50.376;8.762;2024-03-25T13:58:10;14.00;90.90
23703;DHT22;12030;50.376;8.762;2024-03-25T14:00:35;13.90;86.10
23703;DHT22;12030;50.376;8.762;2024-03-25T14:03:03;13.80;86.40
23703;DHT22;12030;50.376;8.762;2024-03-25T14:05:28;13.80;89.40
23703;DHT22;12030;50.376;8.762;2024-03-25T14:07:54;14.10;91.20
23703;DHT22;12030;50.376;8.762;2024-03-25T14:10:19;14.30;88.80
23703;DHT22;12030;50.376;8.762;2024-03-25T14:12:45;14.40;90.30
23703;DHT22;12030;50.376;8.762;2024-03-25T14:15:11;14.60;90.10
23703;DHT22;12030;50.376;8.762;2024-03-25T14:17:36;14.80;82.70
23703;DHT22;12030;50.376;8.762;2024-03-25T14:20:02;14.30;81.00
23703;DHT22;12030;50.376;8.762;2024-03-25T14:22:31;14.20;82.20
23703;DHT22;12030;50.376;8.762;2024-03-25T14:24:57;14.60;86.50
23703;DHT22;12030;50.376;8.762;2024-03-25T14:27:25;14.60;80.00
23703;DHT22;12030;50.376;8.762;2024-03-25T14:29:51;14.90;83.60
23703;DHT22;12030;50.376;8.762;2024-03-25T14:32:21;15.10;87.10
23703;DHT22;12030;50.376;8.762;2024-03-25T14:34:47;15.20;79.60
23703;DHT22;12030;50.376;8.762;2024-03-25T14:37:13;15.00;76.00
23703;DHT22;12030;50.376;8.762;2024-03-25T14:39:39;15.00;82.90
23703;DHT22;12030;50.376;8.762;2024-03-25T14:42:07;15.10;84.20
23703;DHT22;12030;50.376;8.762;2024-03-25T14:44:33;15.40;81.90
23703;DHT22;12030;50.376;8.762;2024-03-25T14:46:58;15.30;82.10
23703;DHT22;12030;50.376;8.762;2024-03-25T14:49:24;15.60;84.60
23703;DHT22;12030;50.376;8.762;2024-03-25T14:51:50;15.40;81.90
23703;DHT22;12030;50.376;8.762;2024-03-25T14:54:18;15.70;80.90
23703;DHT22;12030;50.376;8.762;2024-03-25T14:56:44;16.00;80.80
23703;DHT22;12030;50.376;8.762;2024-03-25T14:59:09;16.00;76.00
23703;DHT22;12030;50.376;8.762;2024-03-25T15:01:35;16.10;74.20
23703;DHT22;12030;50.376;8.762;2024-03-25T15:04:02;15.70;77.60
23703;DHT22;12030;50.376;8.762;2024-03-25T15:06:28;15.90;81.00
23703;DHT22;12030;50.376;8.762;2024-03-25T15:08:53;16.00;80.50
23703;DHT22;12030;50.376;8.762;2024-03-25T15:11:19;15.80;79.70
23703;DHT22;12030;50.376;8.762;2024-03-25T15:13:45;15.50;78.00
23703;DHT22;12030;50.376;8.762;2024-03-25T15:16:11;15.50;75.30
23703;DHT22;12030;50.376;8.762;2024-03-25T15:18:36;15.50;79.20
23703;DHT22;12030;50.376;8.762;2024-03-25T15:21:04;15.50;77.80
23703;DHT22;12030;50.376;8.762;2024-03-25T15:23:30;15.20;79.90
23703;DHT22;12030;50.376;8.762;2024-03-25T15:25:57;15.50;80.50
23703;DHT22;12030;50.376;8.762;2024-03-25T15:28:24;15.50;76.50
23703;DHT22;12030;50.376;8.762;2024-03-25T15:30:52;15.50;75.60
23703;DHT22;12030;50.376;8.762;2024-03-25T15:33:18;15.60;75.10
23703;DHT22;12030;50.376;8.762;2024-03-25T15:35:44;15.60;78.00
23703;DHT22;12030;50.376;8.762;2024-03-25T15:38:09;15.40;78.00